BIRKBIIS

Guest
Details From BIRK - Reykjavik
To BIIS - Isafjordur
Flight Number -
Tags decoded
Created
Modified
Stats Distance 120 nm / 222 km
Max Altitude 0 ft / 0 m
Waypoints 2
Social Downloads 0
Likes 0
Share VATSIM

Download

Looking for another format? Having issues loading an existing format? Contact us
Advertisement - Login to hide

Notes

Requested: BIRK BIAR BIIS

Route

BIRK BIIS

ID Type Via Altitude Latitude Longitude Leg Dist Tot Dist Heading (true) Name
O BIRK APT - 0 ft / 0 m 64.12964˚ -21.94061˚ - 0 nm - Reykjavik
O BIIS APT - 0 ft / 0 m 66.05810˚ -23.13520˚ 119 nm 119 nm 346° / 345° Isafjordur

Altitude Profile

Advertisement - Login to hide

BIRK

Details ICAO BIRK (RKV)
Name Reykjavik
Region Iceland
Timezone Atlantic/Reykjavik (UTC+0.0)
Stats Elevation 47 ft / 14 m (AMSL)
Location 64.129644° -21.940609°
Runways 3
Magnetic Variation 13.658° W

METAR

BIRK 241200Z 29010KT 9999 FEW028 SCT080 08/03 Q1013

Decode

TAF

TAF AMD BIRK 241110Z 2412/2512 10004KT 9999 -SHRA FEW020 BKN050 TX08/2415Z TN04/2504Z BECMG 2413/2415 26012KT PROB30 TEMPO 2414/2420 8000 SHGS BKN015 BECMG 2422/2424 18015KT TEMPO 2500/2503 8000 RA BKN012 BECMG 2501/2503 24018KT TEMPO 2502/2506 24023G33KT BECMG 2509/2511 20010KT

Decode

Departure Runways

ID Width Length Bearing (true) Bearing (mag) Surface Threshold Offset Overrun Length
01 148 ft / 45 m 5,129 ft / 1,563 m 355.27° 8.93° Asphalt 262 ft / 80 m 0 ft / 0 m
06 98 ft / 30 m 2,800 ft / 853 m 46.35° 60.01° Asphalt 299 ft / 91 m 0 ft / 0 m
13 148 ft / 45 m 4,023 ft / 1,226 m 116.28° 129.94° Asphalt 0 ft / 0 m 0 ft / 0 m
19 148 ft / 45 m 5,129 ft / 1,563 m 175.27° 188.93° Asphalt 0 ft / 0 m 0 ft / 0 m
24 98 ft / 30 m 2,800 ft / 853 m 226.37° 240.03° Asphalt 0 ft / 0 m 0 ft / 0 m
31 148 ft / 45 m 4,023 ft / 1,226 m 296.30° 309.96° Asphalt 213 ft / 65 m 0 ft / 0 m

BIIS

Details ICAO BIIS (IFJ)
Name Isafjordur
Region Iceland
Timezone Unknown (UTC+0.0)
Stats Elevation 7 ft / 2 m (AMSL)
Location 66.058100° -23.135201°
Runways 1
Magnetic Variation 15.154° W

METAR

BIIS 241100Z 00000KT 9999 FEW030 SCT060 08/01 Q1012

Decode

TAF

Not found

Destination Runways

ID Width Length Bearing (true) Bearing (mag) Surface Threshold Offset Overrun Length
08 139 ft / 42 m 4,598 ft / 1,401 m 61.84° 76.99° Asphalt 0 ft / 0 m 0 ft / 0 m
26 139 ft / 42 m 4,598 ft / 1,401 m 241.86° 257.01° Asphalt 0 ft / 0 m 0 ft / 0 m

Approach Navaids

Runway Type Ident Frequency Range Bearing (true) Bearing (mag) Slope Elevation
26 Localiser IOG 110.10 MHz 18 nm / 33 km 312.00° 327.15° - 8 ft / 2 m (AMSL)

Popular Alternatives